Airfield :
LOGIN :

Register | Disclaimer

   EN    FR    IT 

 










Legend :    VFR   Marginal VFR   IFR   Intensive IFR   Very Intensive IFR
Visi :
Ceiling :
>= 8 km
>= 3000ft
5 to 8 km
1000 to 3000 ft
1500m to 5 km
500 to 1000 ft
800 to 1500m
200 to 500 ft
< 800m
< 200 ft
Symbols :   Thunderstorms  Fog  Heavy snow  Heavy precipitations  Wind > 20 kt
SIGMETs :     Misc.  Thunderstorms  Icing  Turbulence  Mountain Waves  Volcanic Ashes






- Airport Elevation : 17 ft
- IATA code : MHQ


EFMA - Mariehamn

CURRENT METAR :
  • 261350Z AUTO 23003KT 180V290 CAVOK 06/02 Q1005

EXPIRED METARs :
  • 261320Z AUTO 28006KT 250V310 CAVOK 06/02 Q1004
  • 261250Z AUTO 28008KT 250V310 CAVOK 06/02 Q1004
  • 261220Z AUTO 28010KT 250V320 CAVOK 07/02 Q1004
  • 261150Z AUTO 29009KT 260V320 CAVOK 07/02 Q1004
  • 261120Z AUTO 28009KT 240V320 CAVOK 07/02 Q1004

TAF TAF EFMA
Valid from the 26 at 12:00 until the 26 at 21:00 UTC


261126Z 2612/2621 26009KT CAVOK



MET'MAP, your aeronautical weather chart ! - Copyright ORBIFLY December 2007 - Disclaimer

ORBIFLY MET'MAP TEAM :

Programming & Development : Alexandra Zaïnal
Concept & original design : Baudouin d'Aumeries
Assistance for programming : Marc-Olivier Méhu
Technical & hardware support : Manuel Goepfert

Contact : metmap@orbifly.com




SOURCES & CREDITS :

   NOAA